Details for EasyJet at LIMC




Go Back


Latest METAR
Local Time

LIMC 241350Z 23004KT 200V260 9999 BKN090 09/03 Q1010 NOSIG

24/02/2018, 15:07:51

Description
Results
EasyJet Logo
Number of Pilots based at LIMC
0 Pilots Based here
Number of EasyJet Flights Departed from LIMC
7 Flights Departed
Number of EasyJet Flights Arrived at LIMC
10 Flights Arrived
Number of EasyJet Schedules Departing from LIMC
151 Schedules
Number of EasyJet Schedules Arriving at LIMC
154 Schedules
Number of EasyJet Schedules Departing from LIMC availible today
61 Schedules Today
Number of EasyJet Schedules Arriving at LIMC availible today
62 Schedules Today
Average Landing Rate at LIMC
-250 fpm
EasyJet Average Landing Rate at LIMC
-195 fpm
Total Fuel Purchased at LIMC by EasyJet
30,448.30 kgs / 67,126.32 lbs

Pilots Based at LIMC


Pilot ID
Pilot Name
Pilot Rank
No. of Flights
No. of Flying Hours
There are no pilots assigned to this hub!   Will you be the first?
Content